sensor_id;sensor_type;location;lat;lon;timestamp;temperature;humidity
69436;SHT31;56625;54.322;18.582;2022-12-17T00:02:16;0.51;84.86
69436;SHT31;56625;54.322;18.582;2022-12-17T00:05:04;0.47;84.60
69436;SHT31;56625;54.322;18.582;2022-12-17T00:07:58;0.46;84.57
69436;SHT31;56625;54.322;18.582;2022-12-17T00:10:45;0.53;84.82
69436;SHT31;56625;54.322;18.582;2022-12-17T00:13:32;0.64;85.03
69436;SHT31;56625;54.322;18.582;2022-12-17T00:16:18;0.69;84.69
69436;SHT31;56625;54.322;18.582;2022-12-17T00:19:05;0.66;84.13
69436;SHT31;56625;54.322;18.582;2022-12-17T00:21:52;0.59;84.15
69436;SHT31;56625;54.322;18.582;2022-12-17T00:24:38;0.55;84.08
69436;SHT31;56625;54.322;18.582;2022-12-17T00:27:25;0.43;84.06
69436;SHT31;56625;54.322;18.582;2022-12-17T00:30:12;0.43;84.50
69436;SHT31;56625;54.322;18.582;2022-12-17T00:32:59;0.48;84.72
69436;SHT31;56625;54.322;18.582;2022-12-17T00:35:52;0.51;84.42
69436;SHT31;56625;54.322;18.582;2022-12-17T00:38:40;0.50;84.19
69436;SHT31;56625;54.322;18.582;2022-12-17T00:41:27;0.49;84.22
69436;SHT31;56625;54.322;18.582;2022-12-17T00:44:13;0.46;84.19
69436;SHT31;56625;54.322;18.582;2022-12-17T00:47:00;0.41;84.18
69436;SHT31;56625;54.322;18.582;2022-12-17T00:49:47;0.38;83.92
69436;SHT31;56625;54.322;18.582;2022-12-17T00:52:33;0.23;83.84
69436;SHT31;56625;54.322;18.582;2022-12-17T00:55:22;0.15;84.10
69436;SHT31;56625;54.322;18.582;2022-12-17T00:58:09;0.09;84.23
69436;SHT31;56625;54.322;18.582;2022-12-17T01:00:59;-0.01;84.18
69436;SHT31;56625;54.322;18.582;2022-12-17T01:03:47;-0.10;84.27
69436;SHT31;56625;54.322;18.582;2022-12-17T01:06:34;-0.20;84.41
69436;SHT31;56625;54.322;18.582;2022-12-17T01:09:22;-0.26;84.69
69436;SHT31;56625;54.322;18.582;2022-12-17T01:12:09;-0.23;85.14
69436;SHT31;56625;54.322;18.582;2022-12-17T01:14:56;-0.21;85.06
69436;SHT31;56625;54.322;18.582;2022-12-17T01:17:42;-0.20;84.97
69436;SHT31;56625;54.322;18.582;2022-12-17T01:20:29;-0.16;85.22
69436;SHT31;56625;54.322;18.582;2022-12-17T01:23:16;-0.13;84.99
69436;SHT31;56625;54.322;18.582;2022-12-17T01:26:03;-0.11;84.90
69436;SHT31;56625;54.322;18.582;2022-12-17T01:28:50;-0.08;84.80
69436;SHT31;56625;54.322;18.582;2022-12-17T01:31:37;-0.06;84.68
69436;SHT31;56625;54.322;18.582;2022-12-17T01:34:24;-0.02;84.62
69436;SHT31;56625;54.322;18.582;2022-12-17T01:37:14;-0.03;84.40
69436;SHT31;56625;54.322;18.582;2022-12-17T01:40:00;-0.09;84.50
69436;SHT31;56625;54.322;18.582;2022-12-17T01:42:47;-0.05;84.80
69436;SHT31;56625;54.322;18.582;2022-12-17T01:45:42;-0.10;84.51
69436;SHT31;56625;54.322;18.582;2022-12-17T01:48:40;-0.18;84.54
69436;SHT31;56625;54.322;18.582;2022-12-17T01:51:31;-0.20;84.74
69436;SHT31;56625;54.322;18.582;2022-12-17T01:54:21;-0.20;84.79
69436;SHT31;56625;54.322;18.582;2022-12-17T01:57:07;-0.23;84.73
69436;SHT31;56625;54.322;18.582;2022-12-17T01:59:59;-0.22;84.84
69436;SHT31;56625;54.322;18.582;2022-12-17T02:02:53;-0.21;84.67
69436;SHT31;56625;54.322;18.582;2022-12-17T02:05:42;-0.31;84.35
69436;SHT31;56625;54.322;18.582;2022-12-17T02:08:37;-0.36;84.73
69436;SHT31;56625;54.322;18.582;2022-12-17T02:14:48;-0.20;85.05
69436;SHT31;56625;54.322;18.582;2022-12-17T02:17:52;-0.15;84.78
69436;SHT31;56625;54.322;18.582;2022-12-17T02:20:46;-0.21;84.50
69436;SHT31;56625;54.322;18.582;2022-12-17T02:27:03;-0.32;84.53
69436;SHT31;56625;54.322;18.582;2022-12-17T02:29:55;-0.38;84.57
69436;SHT31;56625;54.322;18.582;2022-12-17T02:32:48;-0.36;84.79
69436;SHT31;56625;54.322;18.582;2022-12-17T02:35:45;-0.31;84.83
69436;SHT31;56625;54.322;18.582;2022-12-17T02:38:39;-0.29;84.72
69436;SHT31;56625;54.322;18.582;2022-12-17T02:41:27;-0.35;84.20
69436;SHT31;56625;54.322;18.582;2022-12-17T02:44:17;-0.53;84.14
69436;SHT31;56625;54.322;18.582;2022-12-17T02:47:08;-0.68;84.41
69436;SHT31;56625;54.322;18.582;2022-12-17T02:49:56;-0.83;84.66
69436;SHT31;56625;54.322;18.582;2022-12-17T02:52:45;-0.92;85.00
69436;SHT31;56625;54.322;18.582;2022-12-17T02:55:34;-0.96;85.31
69436;SHT31;56625;54.322;18.582;2022-12-17T02:58:21;-0.91;85.62
69436;SHT31;56625;54.322;18.582;2022-12-17T03:01:08;-0.89;85.47
69436;SHT31;56625;54.322;18.582;2022-12-17T03:03:54;-0.92;85.32
69436;SHT31;56625;54.322;18.582;2022-12-17T03:06:41;-0.92;85.49
69436;SHT31;56625;54.322;18.582;2022-12-17T03:09:28;-0.92;85.60
69436;SHT31;56625;54.322;18.582;2022-12-17T03:12:15;-0.89;85.71
69436;SHT31;56625;54.322;18.582;2022-12-17T03:15:01;-0.88;85.54
69436;SHT31;56625;54.322;18.582;2022-12-17T03:17:49;-0.89;85.46
69436;SHT31;56625;54.322;18.582;2022-12-17T03:20:35;-0.85;85.68
69436;SHT31;56625;54.322;18.582;2022-12-17T03:23:22;-0.79;85.74
69436;SHT31;56625;54.322;18.582;2022-12-17T03:26:09;-0.73;85.56
69436;SHT31;56625;54.322;18.582;2022-12-17T03:28:56;-0.66;85.54
69436;SHT31;56625;54.322;18.582;2022-12-17T03:31:42;-0.58;85.54
69436;SHT31;56625;54.322;18.582;2022-12-17T03:34:32;-0.51;85.29
69436;SHT31;56625;54.322;18.582;2022-12-17T03:37:19;-0.53;84.77
69436;SHT31;56625;54.322;18.582;2022-12-17T03:40:05;-0.57;84.88
69436;SHT31;56625;54.322;18.582;2022-12-17T03:42:53;-0.53;85.20
69436;SHT31;56625;54.322;18.582;2022-12-17T03:45:39;-0.46;85.13
69436;SHT31;56625;54.322;18.582;2022-12-17T03:48:26;-0.39;84.97
69436;SHT31;56625;54.322;18.582;2022-12-17T03:51:13;-0.33;84.90
69436;SHT31;56625;54.322;18.582;2022-12-17T03:53:59;-0.26;84.81
69436;SHT31;56625;54.322;18.582;2022-12-17T03:56:46;-0.18;84.73
69436;SHT31;56625;54.322;18.582;2022-12-17T03:59:39;-0.17;84.21
69436;SHT31;56625;54.322;18.582;2022-12-17T04:02:25;-0.21;84.16
69436;SHT31;56625;54.322;18.582;2022-12-17T04:05:12;-0.21;84.29
69436;SHT31;56625;54.322;18.582;2022-12-17T04:07:59;-0.21;84.24
69436;SHT31;56625;54.322;18.582;2022-12-17T04:10:46;-0.22;84.19
69436;SHT31;56625;54.322;18.582;2022-12-17T04:13:32;-0.28;84.01
69436;SHT31;56625;54.322;18.582;2022-12-17T04:16:19;-0.33;83.98
69436;SHT31;56625;54.322;18.582;2022-12-17T04:19:06;-0.37;83.98
69436;SHT31;56625;54.322;18.582;2022-12-17T04:21:52;-0.39;84.21
69436;SHT31;56625;54.322;18.582;2022-12-17T04:24:39;-0.42;84.35
69436;SHT31;56625;54.322;18.582;2022-12-17T04:27:26;-0.44;84.29
69436;SHT31;56625;54.322;18.582;2022-12-17T04:30:12;-0.48;84.34
69436;SHT31;56625;54.322;18.582;2022-12-17T04:32:59;-0.54;84.32
69436;SHT31;56625;54.322;18.582;2022-12-17T04:35:46;-0.60;84.49
69436;SHT31;56625;54.322;18.582;2022-12-17T04:38:32;-0.61;84.58
69436;SHT31;56625;54.322;18.582;2022-12-17T04:41:19;-0.56;84.79
69436;SHT31;56625;54.322;18.582;2022-12-17T04:44:06;-0.57;84.44
69436;SHT31;56625;54.322;18.582;2022-12-17T04:46:52;-0.58;84.71
69436;SHT31;56625;54.322;18.582;2022-12-17T04:49:39;-0.53;84.87
69436;SHT31;56625;54.322;18.582;2022-12-17T04:52:26;-0.56;84.61
69436;SHT31;56625;54.322;18.582;2022-12-17T04:55:12;-0.62;84.54
69436;SHT31;56625;54.322;18.582;2022-12-17T04:58:03;-0.70;84.51
69436;SHT31;56625;54.322;18.582;2022-12-17T05:00:51;-0.73;84.78
69436;SHT31;56625;54.322;18.582;2022-12-17T05:03:39;-0.79;84.71
69436;SHT31;56625;54.322;18.582;2022-12-17T05:06:26;-0.85;84.75
69436;SHT31;56625;54.322;18.582;2022-12-17T05:09:12;-0.86;84.83
69436;SHT31;56625;54.322;18.582;2022-12-17T05:11:59;-0.84;84.97
69436;SHT31;56625;54.322;18.582;2022-12-17T05:14:46;-0.86;84.98
69436;SHT31;56625;54.322;18.582;2022-12-17T05:17:33;-0.84;85.16
69436;SHT31;56625;54.322;18.582;2022-12-17T05:20:19;-0.84;85.08
69436;SHT31;56625;54.322;18.582;2022-12-17T05:23:06;-0.81;85.23
69436;SHT31;56625;54.322;18.582;2022-12-17T05:25:56;-0.84;84.90
69436;SHT31;56625;54.322;18.582;2022-12-17T05:28:56;-0.90;84.79
69436;SHT31;56625;54.322;18.582;2022-12-17T05:31:42;-0.98;84.86
69436;SHT31;56625;54.322;18.582;2022-12-17T05:34:29;-1.04;84.99
69436;SHT31;56625;54.322;18.582;2022-12-17T05:37:15;-1.09;84.97
69436;SHT31;56625;54.322;18.582;2022-12-17T05:40:03;-1.13;85.09
69436;SHT31;56625;54.322;18.582;2022-12-17T05:42:54;-1.14;85.12
69436;SHT31;56625;54.322;18.582;2022-12-17T05:45:43;-1.13;85.36
69436;SHT31;56625;54.322;18.582;2022-12-17T05:48:31;-1.06;85.50
69436;SHT31;56625;54.322;18.582;2022-12-17T05:51:19;-1.05;85.21
69436;SHT31;56625;54.322;18.582;2022-12-17T05:54:07;-1.05;85.11
69436;SHT31;56625;54.322;18.582;2022-12-17T05:56:54;-0.98;85.44
69436;SHT31;56625;54.322;18.582;2022-12-17T05:59:41;-0.97;85.02
69436;SHT31;56625;54.322;18.582;2022-12-17T06:02:27;-1.04;84.68
69436;SHT31;56625;54.322;18.582;2022-12-17T06:05:14;-1.01;85.05
69436;SHT31;56625;54.322;18.582;2022-12-17T06:08:01;-0.92;85.05
69436;SHT31;56625;54.322;18.582;2022-12-17T06:10:53;-0.84;84.97
69436;SHT31;56625;54.322;18.582;2022-12-17T06:13:43;-0.75;84.99
69436;SHT31;56625;54.322;18.582;2022-12-17T06:16:32;-0.72;84.51
69436;SHT31;56625;54.322;18.582;2022-12-17T06:19:18;-0.78;84.29
69436;SHT31;56625;54.322;18.582;2022-12-17T06:22:04;-0.83;84.29
69436;SHT31;56625;54.322;18.582;2022-12-17T06:24:51;-0.87;84.42
69436;SHT31;56625;54.322;18.582;2022-12-17T06:27:38;-0.82;84.78
69436;SHT31;56625;54.322;18.582;2022-12-17T06:30:25;-0.76;84.68
69436;SHT31;56625;54.322;18.582;2022-12-17T06:33:11;-0.75;84.26
69436;SHT31;56625;54.322;18.582;2022-12-17T06:35:58;-0.82;84.09
69436;SHT31;56625;54.322;18.582;2022-12-17T06:38:49;-0.88;84.16
69436;SHT31;56625;54.322;18.582;2022-12-17T06:41:36;-0.98;84.33
69436;SHT31;56625;54.322;18.582;2022-12-17T06:44:30;-1.03;84.64
69436;SHT31;56625;54.322;18.582;2022-12-17T06:47:17;-1.08;84.74
69436;SHT31;56625;54.322;18.582;2022-12-17T06:50:04;-1.11;84.80
69436;SHT31;56625;54.322;18.582;2022-12-17T06:52:58;-1.11;84.82
69436;SHT31;56625;54.322;18.582;2022-12-17T06:55:47;-1.11;84.74
69436;SHT31;56625;54.322;18.582;2022-12-17T06:58:34;-1.08;84.79
69436;SHT31;56625;54.322;18.582;2022-12-17T07:01:22;-0.95;85.14
69436;SHT31;56625;54.322;18.582;2022-12-17T07:04:09;-0.85;84.86
69436;SHT31;56625;54.322;18.582;2022-12-17T07:06:58;-0.79;84.52
69436;SHT31;56625;54.322;18.582;2022-12-17T07:09:45;-0.73;84.42
69436;SHT31;56625;54.322;18.582;2022-12-17T07:12:40;-0.69;84.20
69436;SHT31;56625;54.322;18.582;2022-12-17T07:15:26;-0.68;84.08
69436;SHT31;56625;54.322;18.582;2022-12-17T07:18:13;-0.62;84.17
69436;SHT31;56625;54.322;18.582;2022-12-17T07:21:19;-0.60;83.92
69436;SHT31;56625;54.322;18.582;2022-12-17T07:24:06;-0.63;83.69
69436;SHT31;56625;54.322;18.582;2022-12-17T07:26:54;-0.67;83.56
69436;SHT31;56625;54.322;18.582;2022-12-17T07:29:40;-0.70;83.51
69436;SHT31;56625;54.322;18.582;2022-12-17T07:32:27;-0.69;83.50
69436;SHT31;56625;54.322;18.582;2022-12-17T07:35:14;-0.71;83.48
69436;SHT31;56625;54.322;18.582;2022-12-17T07:38:01;-0.74;83.52
69436;SHT31;56625;54.322;18.582;2022-12-17T07:40:50;-0.76;83.58
69436;SHT31;56625;54.322;18.582;2022-12-17T07:43:37;-0.79;83.72
69436;SHT31;56625;54.322;18.582;2022-12-17T07:46:24;-0.80;83.80
69436;SHT31;56625;54.322;18.582;2022-12-17T07:49:10;-0.80;83.94
69436;SHT31;56625;54.322;18.582;2022-12-17T07:51:57;-0.76;83.92
69436;SHT31;56625;54.322;18.582;2022-12-17T07:54:44;-0.74;83.87
69436;SHT31;56625;54.322;18.582;2022-12-17T07:57:30;-0.69;83.91
69436;SHT31;56625;54.322;18.582;2022-12-17T08:00:17;-0.65;83.89
69436;SHT31;56625;54.322;18.582;2022-12-17T08:03:04;-0.63;83.83
69436;SHT31;56625;54.322;18.582;2022-12-17T08:05:50;-0.63;83.81
69436;SHT31;56625;54.322;18.582;2022-12-17T08:08:37;-0.63;83.82
69436;SHT31;56625;54.322;18.582;2022-12-17T08:11:24;-0.64;83.85
69436;SHT31;56625;54.322;18.582;2022-12-17T08:14:10;-0.67;83.82
69436;SHT31;56625;54.322;18.582;2022-12-17T08:16:57;-0.63;83.89
69436;SHT31;56625;54.322;18.582;2022-12-17T08:19:44;-0.53;83.82
69436;SHT31;56625;54.322;18.582;2022-12-17T08:22:30;-0.54;83.62
69436;SHT31;56625;54.322;18.582;2022-12-17T08:25:17;-0.53;83.72
69436;SHT31;56625;54.322;18.582;2022-12-17T08:28:03;-0.51;83.75
69436;SHT31;56625;54.322;18.582;2022-12-17T08:31:10;-0.47;83.79
69436;SHT31;56625;54.322;18.582;2022-12-17T08:33:56;-0.39;83.79
69436;SHT31;56625;54.322;18.582;2022-12-17T08:36:43;-0.27;83.63
69436;SHT31;56625;54.322;18.582;2022-12-17T08:39:30;-0.23;83.16
69436;SHT31;56625;54.322;18.582;2022-12-17T08:42:16;-0.27;83.01
69436;SHT31;56625;54.322;18.582;2022-12-17T08:45:03;-0.34;83.01
69436;SHT31;56625;54.322;18.582;2022-12-17T08:47:51;-0.35;83.27
69436;SHT31;56625;54.322;18.582;2022-12-17T08:50:38;-0.22;83.33
69436;SHT31;56625;54.322;18.582;2022-12-17T08:53:24;-0.06;83.16
69436;SHT31;56625;54.322;18.582;2022-12-17T08:56:10;0.12;82.91
69436;SHT31;56625;54.322;18.582;2022-12-17T08:58:57;0.21;82.29
69436;SHT31;56625;54.322;18.582;2022-12-17T09:01:44;0.25;82.07
69436;SHT31;56625;54.322;18.582;2022-12-17T09:04:30;0.37;81.99
69436;SHT31;56625;54.322;18.582;2022-12-17T09:07:18;0.39;81.84
69436;SHT31;56625;54.322;18.582;2022-12-17T09:10:04;0.33;81.39
69436;SHT31;56625;54.322;18.582;2022-12-17T09:12:51;0.37;81.63
69436;SHT31;56625;54.322;18.582;2022-12-17T09:15:38;0.36;81.43
69436;SHT31;56625;54.322;18.582;2022-12-17T09:18:25;0.28;81.47
69436;SHT31;56625;54.322;18.582;2022-12-17T09:21:13;0.21;81.78
69436;SHT31;56625;54.322;18.582;2022-12-17T09:24:00;0.14;81.83
69436;SHT31;56625;54.322;18.582;2022-12-17T09:26:46;0.04;81.92
69436;SHT31;56625;54.322;18.582;2022-12-17T09:29:34;0.01;82.27
69436;SHT31;56625;54.322;18.582;2022-12-17T09:32:20;0.17;82.38
69436;SHT31;56625;54.322;18.582;2022-12-17T09:35:07;0.44;81.98
69436;SHT31;56625;54.322;18.582;2022-12-17T09:37:55;0.65;81.08
69436;SHT31;56625;54.322;18.582;2022-12-17T09:40:44;1.00;80.17
69436;SHT31;56625;54.322;18.582;2022-12-17T09:46:57;1.71;76.88
69436;SHT31;56625;54.322;18.582;2022-12-17T09:50:03;1.59;77.36
69436;SHT31;56625;54.322;18.582;2022-12-17T09:52:58;1.64;77.84
69436;SHT31;56625;54.322;18.582;2022-12-17T09:55:51;1.74;77.20
69436;SHT31;56625;54.322;18.582;2022-12-17T09:58:38;1.68;76.41
69436;SHT31;56625;54.322;18.582;2022-12-17T10:01:27;1.52;76.95
69436;SHT31;56625;54.322;18.582;2022-12-17T10:04:20;1.31;77.28
69436;SHT31;56625;54.322;18.582;2022-12-17T10:07:25;1.05;77.87
69436;SHT31;56625;54.322;18.582;2022-12-17T10:10:20;0.85;78.68
69436;SHT31;56625;54.322;18.582;2022-12-17T10:13:13;0.74;79.02
69436;SHT31;56625;54.322;18.582;2022-12-17T10:16:24;0.69;79.40
69436;SHT31;56625;54.322;18.582;2022-12-17T10:19:24;0.63;79.59
69436;SHT31;56625;54.322;18.582;2022-12-17T10:22:43;0.57;79.91
69436;SHT31;56625;54.322;18.582;2022-12-17T10:25:35;0.53;80.22
69436;SHT31;56625;54.322;18.582;2022-12-17T10:28:31;0.49;80.42
69436;SHT31;56625;54.322;18.582;2022-12-17T10:31:18;0.49;80.64
69436;SHT31;56625;54.322;18.582;2022-12-17T10:34:19;0.48;80.70
69436;SHT31;56625;54.322;18.582;2022-12-17T10:37:13;0.49;80.83
69436;SHT31;56625;54.322;18.582;2022-12-17T10:40:15;0.45;80.91
69436;SHT31;56625;54.322;18.582;2022-12-17T10:43:23;0.39;81.06
69436;SHT31;56625;54.322;18.582;2022-12-17T10:46:26;0.38;81.28
69436;SHT31;56625;54.322;18.582;2022-12-17T10:52:06;0.46;81.46
69436;SHT31;56625;54.322;18.582;2022-12-17T10:55:17;0.50;81.31
69436;SHT31;56625;54.322;18.582;2022-12-17T10:58:20;0.48;81.19
69436;SHT31;56625;54.322;18.582;2022-12-17T11:01:11;0.42;81.25
69436;SHT31;56625;54.322;18.582;2022-12-17T11:04:24;0.43;81.42
69436;SHT31;56625;54.322;18.582;2022-12-17T11:10:26;0.50;81.13
69436;SHT31;56625;54.322;18.582;2022-12-17T11:13:28;0.51;81.15
69436;SHT31;56625;54.322;18.582;2022-12-17T11:16:24;0.51;80.95
69436;SHT31;56625;54.322;18.582;2022-12-17T11:19:25;0.50;80.96
69436;SHT31;56625;54.322;18.582;2022-12-17T11:29:02;0.55;80.76
69436;SHT31;56625;54.322;18.582;2022-12-17T11:35:18;0.62;80.49
69436;SHT31;56625;54.322;18.582;2022-12-17T11:41:26;0.74;80.41
69436;SHT31;56625;54.322;18.582;2022-12-17T11:44:35;0.81;80.32
69436;SHT31;56625;54.322;18.582;2022-12-17T11:48:00;0.85;80.30
69436;SHT31;56625;54.322;18.582;2022-12-17T11:50:57;0.84;80.31
69436;SHT31;56625;54.322;18.582;2022-12-17T11:54:07;0.85;80.40
69436;SHT31;56625;54.322;18.582;2022-12-17T11:57:26;0.89;80.40
69436;SHT31;56625;54.322;18.582;2022-12-17T12:00:23;0.92;80.37
69436;SHT31;56625;54.322;18.582;2022-12-17T12:10:27;1.04;80.30
69436;SHT31;56625;54.322;18.582;2022-12-17T12:13:35;1.05;80.06
69436;SHT31;56625;54.322;18.582;2022-12-17T12:16:56;1.06;79.85
69436;SHT31;56625;54.322;18.582;2022-12-17T12:20:28;1.04;79.61
69436;SHT31;56625;54.322;18.582;2022-12-17T12:31:02;1.01;79.81
69436;SHT31;56625;54.322;18.582;2022-12-17T12:34:12;0.93;79.94
69436;SHT31;56625;54.322;18.582;2022-12-17T12:37:06;0.88;80.07
69436;SHT31;56625;54.322;18.582;2022-12-17T12:40:04;0.81;80.19
69436;SHT31;56625;54.322;18.582;2022-12-17T12:49:33;0.79;80.56
69436;SHT31;56625;54.322;18.582;2022-12-17T12:52:45;0.82;80.52
69436;SHT31;56625;54.322;18.582;2022-12-17T12:55:37;0.86;80.49
69436;SHT31;56625;54.322;18.582;2022-12-17T12:58:31;0.89;80.53
69436;SHT31;56625;54.322;18.582;2022-12-17T13:01:20;0.90;80.33
69436;SHT31;56625;54.322;18.582;2022-12-17T13:04:28;0.86;80.42
69436;SHT31;56625;54.322;18.582;2022-12-17T13:07:20;0.81;80.68
69436;SHT31;56625;54.322;18.582;2022-12-17T13:09:56;0.77;80.89
69436;SHT31;56625;54.322;18.582;2022-12-17T13:12:27;0.75;81.03
69436;SHT31;56625;54.322;18.582;2022-12-17T13:15:15;0.75;81.02
69436;SHT31;56625;54.322;18.582;2022-12-17T13:20:43;0.75;81.00
69436;SHT31;56625;54.322;18.582;2022-12-17T13:23:26;0.73;81.13
69436;SHT31;56625;54.322;18.582;2022-12-17T13:29:01;0.63;81.45
69436;SHT31;56625;54.322;18.582;2022-12-17T13:43:53;0.50;82.40
69436;SHT31;56625;54.322;18.582;2022-12-17T13:49:03;0.46;82.55
69436;SHT31;56625;54.322;18.582;2022-12-17T13:51:47;0.42;82.62
69436;SHT31;56625;54.322;18.582;2022-12-17T13:54:38;0.41;82.70
69436;SHT31;56625;54.322;18.582;2022-12-17T13:57:13;0.42;82.63
69436;SHT31;56625;54.322;18.582;2022-12-17T13:59:51;0.44;82.55
69436;SHT31;56625;54.322;18.582;2022-12-17T14:02:23;0.44;82.44
69436;SHT31;56625;54.322;18.582;2022-12-17T14:05:06;0.43;82.32
69436;SHT31;56625;54.322;18.582;2022-12-17T14:07:50;0.40;82.39
69436;SHT31;56625;54.322;18.582;2022-12-17T14:10:20;0.36;82.37
69436;SHT31;56625;54.322;18.582;2022-12-17T14:12:48;0.32;82.29
69436;SHT31;56625;54.322;18.582;2022-12-17T14:15:19;0.27;82.25
69436;SHT31;56625;54.322;18.582;2022-12-17T14:17:52;0.23;82.19
69436;SHT31;56625;54.322;18.582;2022-12-17T14:20:24;0.22;81.97
69436;SHT31;56625;54.322;18.582;2022-12-17T14:22:58;0.19;81.89
69436;SHT31;56625;54.322;18.582;2022-12-17T14:25:41;0.15;81.81
69436;SHT31;56625;54.322;18.582;2022-12-17T14:31:07;0.09;81.80
69436;SHT31;56625;54.322;18.582;2022-12-17T14:36:38;0.02;81.94
69436;SHT31;56625;54.322;18.582;2022-12-17T14:39:16;-0.01;81.95
69436;SHT31;56625;54.322;18.582;2022-12-17T14:41:50;-0.03;81.99
69436;SHT31;56625;54.322;18.582;2022-12-17T14:44:41;-0.03;82.00
69436;SHT31;56625;54.322;18.582;2022-12-17T14:47:29;-0.00;81.93
69436;SHT31;56625;54.322;18.582;2022-12-17T14:50:05;-0.02;81.85
69436;SHT31;56625;54.322;18.582;2022-12-17T14:58:14;-0.00;81.93
69436;SHT31;56625;54.322;18.582;2022-12-17T15:01:06;-0.01;81.81
69436;SHT31;56625;54.322;18.582;2022-12-17T15:03:40;-0.01;81.91
69436;SHT31;56625;54.322;18.582;2022-12-17T15:06:16;0.00;81.72
69436;SHT31;56625;54.322;18.582;2022-12-17T15:08:47;0.00;81.69
69436;SHT31;56625;54.322;18.582;2022-12-17T15:11:22;0.03;81.46
69436;SHT31;56625;54.322;18.582;2022-12-17T15:13:50;0.04;81.28
69436;SHT31;56625;54.322;18.582;2022-12-17T15:16:23;0.08;81.21
69436;SHT31;56625;54.322;18.582;2022-12-17T15:18:51;0.09;81.04
69436;SHT31;56625;54.322;18.582;2022-12-17T15:21:19;0.07;80.70
69436;SHT31;56625;54.322;18.582;2022-12-17T15:23:47;0.04;80.74
69436;SHT31;56625;54.322;18.582;2022-12-17T15:26:15;0.01;80.65
69436;SHT31;56625;54.322;18.582;2022-12-17T15:28:43;-0.01;80.80
69436;SHT31;56625;54.322;18.582;2022-12-17T15:31:13;-0.04;80.87
69436;SHT31;56625;54.322;18.582;2022-12-17T15:33:48;-0.05;80.90
69436;SHT31;56625;54.322;18.582;2022-12-17T15:36:16;-0.03;80.86
69436;SHT31;56625;54.322;18.582;2022-12-17T15:38:44;-0.02;80.62
69436;SHT31;56625;54.322;18.582;2022-12-17T15:41:12;-0.03;80.44
69436;SHT31;56625;54.322;18.582;2022-12-17T15:43:59;-0.07;80.44
69436;SHT31;56625;54.322;18.582;2022-12-17T15:46:27;-0.09;80.59
69436;SHT31;56625;54.322;18.582;2022-12-17T15:48:56;-0.10;80.60
69436;SHT31;56625;54.322;18.582;2022-12-17T15:51:24;-0.14;80.56
69436;SHT31;56625;54.322;18.582;2022-12-17T15:53:52;-0.16;80.52
69436;SHT31;56625;54.322;18.582;2022-12-17T15:56:22;-0.17;80.53
69436;SHT31;56625;54.322;18.582;2022-12-17T15:58:56;-0.19;80.30
69436;SHT31;56625;54.322;18.582;2022-12-17T16:01:25;-0.23;80.09
69436;SHT31;56625;54.322;18.582;2022-12-17T16:03:53;-0.27;79.90
69436;SHT31;56625;54.322;18.582;2022-12-17T16:06:21;-0.31;79.90
69436;SHT31;56625;54.322;18.582;2022-12-17T16:08:49;-0.37;79.81
69436;SHT31;56625;54.322;18.582;2022-12-17T16:11:17;-0.43;79.86
69436;SHT31;56625;54.322;18.582;2022-12-17T16:13:45;-0.50;79.85
69436;SHT31;56625;54.322;18.582;2022-12-17T16:16:13;-0.58;80.10
69436;SHT31;56625;54.322;18.582;2022-12-17T16:18:41;-0.63;80.21
69436;SHT31;56625;54.322;18.582;2022-12-17T16:21:09;-0.70;80.20
69436;SHT31;56625;54.322;18.582;2022-12-17T16:23:37;-0.77;80.17
69436;SHT31;56625;54.322;18.582;2022-12-17T16:26:06;-0.85;80.17
69436;SHT31;56625;54.322;18.582;2022-12-17T16:28:36;-0.91;80.23
69436;SHT31;56625;54.322;18.582;2022-12-17T16:31:08;-0.95;80.31
69436;SHT31;56625;54.322;18.582;2022-12-17T16:33:40;-1.03;80.26
69436;SHT31;56625;54.322;18.582;2022-12-17T16:36:12;-1.09;80.39
69436;SHT31;56625;54.322;18.582;2022-12-17T16:38:50;-1.19;80.54
69436;SHT31;56625;54.322;18.582;2022-12-17T16:41:20;-1.28;80.78
69436;SHT31;56625;54.322;18.582;2022-12-17T16:43:49;-1.37;80.90
69436;SHT31;56625;54.322;18.582;2022-12-17T16:48:56;-1.43;80.93
69436;SHT31;56625;54.322;18.582;2022-12-17T16:51:30;-1.50;80.90
69436;SHT31;56625;54.322;18.582;2022-12-17T16:53:58;-1.55;81.13
69436;SHT31;56625;54.322;18.582;2022-12-17T16:56:33;-1.62;81.32
69436;SHT31;56625;54.322;18.582;2022-12-17T16:59:07;-1.66;81.32
69436;SHT31;56625;54.322;18.582;2022-12-17T17:01:37;-1.72;81.29
69436;SHT31;56625;54.322;18.582;2022-12-17T17:04:08;-1.78;81.37
69436;SHT31;56625;54.322;18.582;2022-12-17T17:06:41;-1.81;81.27
69436;SHT31;56625;54.322;18.582;2022-12-17T17:09:13;-1.85;81.10
69436;SHT31;56625;54.322;18.582;2022-12-17T17:11:42;-1.92;81.24
69436;SHT31;56625;54.322;18.582;2022-12-17T17:14:18;-1.97;81.36
69436;SHT31;56625;54.322;18.582;2022-12-17T17:16:46;-2.01;81.51
69436;SHT31;56625;54.322;18.582;2022-12-17T17:19:14;-2.06;81.73
69436;SHT31;56625;54.322;18.582;2022-12-17T17:21:50;-2.10;81.82
69436;SHT31;56625;54.322;18.582;2022-12-17T17:24:20;-2.09;81.91
69436;SHT31;56625;54.322;18.582;2022-12-17T17:26:52;-2.08;81.96
69436;SHT31;56625;54.322;18.582;2022-12-17T17:29:22;-2.06;81.94
69436;SHT31;56625;54.322;18.582;2022-12-17T17:31:50;-2.05;81.93
69436;SHT31;56625;54.322;18.582;2022-12-17T17:34:38;-2.08;81.87
69436;SHT31;56625;54.322;18.582;2022-12-17T17:37:06;-2.11;81.93
69436;SHT31;56625;54.322;18.582;2022-12-17T17:39:34;-2.14;81.93
69436;SHT31;56625;54.322;18.582;2022-12-17T17:42:03;-2.19;82.02
69436;SHT31;56625;54.322;18.582;2022-12-17T17:44:31;-2.23;82.08
69436;SHT31;56625;54.322;18.582;2022-12-17T17:46:59;-2.26;82.11
69436;SHT31;56625;54.322;18.582;2022-12-17T17:49:28;-2.25;82.27
69436;SHT31;56625;54.322;18.582;2022-12-17T17:51:56;-2.25;82.22
69436;SHT31;56625;54.322;18.582;2022-12-17T17:54:39;-2.26;82.10
69436;SHT31;56625;54.322;18.582;2022-12-17T17:57:07;-2.29;82.17
69436;SHT31;56625;54.322;18.582;2022-12-17T17:59:37;-2.29;82.20
69436;SHT31;56625;54.322;18.582;2022-12-17T18:02:06;-2.29;82.26
69436;SHT31;56625;54.322;18.582;2022-12-17T18:04:37;-2.29;82.32
69436;SHT31;56625;54.322;18.582;2022-12-17T18:07:06;-2.29;82.38
69436;SHT31;56625;54.322;18.582;2022-12-17T18:09:54;-2.26;82.37
69436;SHT31;56625;54.322;18.582;2022-12-17T18:12:22;-2.21;82.21
69436;SHT31;56625;54.322;18.582;2022-12-17T18:15:09;-2.15;82.08
69436;SHT31;56625;54.322;18.582;2022-12-17T18:17:43;-2.12;81.95
69436;SHT31;56625;54.322;18.582;2022-12-17T18:20:13;-2.10;81.93
69436;SHT31;56625;54.322;18.582;2022-12-17T18:22:41;-2.07;81.97
69436;SHT31;56625;54.322;18.582;2022-12-17T18:25:13;-2.07;82.00
69436;SHT31;56625;54.322;18.582;2022-12-17T18:27:42;-2.05;82.04
69436;SHT31;56625;54.322;18.582;2022-12-17T18:30:11;-2.04;82.10
69436;SHT31;56625;54.322;18.582;2022-12-17T18:32:41;-2.01;82.10
69436;SHT31;56625;54.322;18.582;2022-12-17T18:35:09;-1.95;82.08
69436;SHT31;56625;54.322;18.582;2022-12-17T18:37:37;-1.89;81.94